Time;durP1;ratioP1;P1;durP2;ratioP2;P2;SDS_P1;SDS_P2;PMS_P1;PMS_P2;Temp;Humidity;BMP_temperature;BMP_pressure;BME280_temperature;BME280_humidity;BME280_pressure;Samples;Min_cycle;Max_cycle;Signal;HPM_P1;HPM_P2
2022/03/22 00:01:30;;;;;;;5.17;4.30;;;0.90;56.60;0.50;102478.00;;;;4951060;28;109166;-69
2022/03/22 00:03:56;;;;;;;4.80;3.43;;;0.90;56.70;0.50;102464.00;;;;4940824;28;122332;-69
2022/03/22 00:06:22;;;;;;;4.37;3.40;;;0.80;56.80;0.40;102477.00;;;;4930866;28;107651;-69
2022/03/22 00:08:48;;;;;;;4.23;3.53;;;1.30;57.30;0.40;102482.00;;;;4931777;28;110338;-68
2022/03/22 00:11:15;;;;;;;7.87;4.73;;;0.70;57.20;0.30;102483.00;;;;4932067;28;92947;-69
2022/03/22 00:13:42;;;;;;;3.77;3.13;;;0.60;57.40;0.30;102480.00;;;;4933722;28;106558;-69
2022/03/22 00:16:08;;;;;;;10.70;5.47;;;0.70;58.00;0.20;102469.00;;;;4913582;28;93561;-69
2022/03/22 00:18:35;;;;;;;4.43;3.93;;;0.60;58.10;0.20;102483.00;;;;4923614;28;92759;-69
2022/03/22 00:21:01;;;;;;;7.97;4.30;;;0.50;58.10;0.20;102479.00;;;;4916927;28;94788;-69
2022/03/22 00:23:27;;;;;;;10.07;5.00;;;0.50;58.40;0.10;102474.00;;;;4952890;28;92977;-69
2022/03/22 00:25:53;;;;;;;8.07;3.80;;;0.40;58.50;0.00;102474.00;;;;4935377;28;92905;-69
2022/03/22 00:28:19;;;;;;;6.67;4.20;;;0.40;58.70;0.00;102464.00;;;;4954302;28;111400;-69
2022/03/22 00:30:45;;;;;;;7.73;4.43;;;0.30;58.70;-0.10;102469.00;;;;4952750;28;93818;-69
2022/03/22 00:33:10;;;;;;;7.43;3.80;;;0.20;58.80;-0.20;102465.00;;;;4954375;28;94196;-69
2022/03/22 00:35:38;;;;;;;5.50;3.63;;;0.20;59.00;-0.20;102469.00;;;;4954250;28;110752;-70
2022/03/22 00:38:06;;;;;;;4.83;3.43;;;0.20;59.30;-0.30;102467.00;;;;4936220;28;92956;-69
2022/03/22 00:40:32;;;;;;;7.47;4.27;;;0.10;59.50;-0.30;102466.00;;;;4935778;28;92771;-69
2022/03/22 00:42:59;;;;;;;6.97;4.50;;;0.00;59.40;-0.40;102466.00;;;;4952932;28;113942;-69
2022/03/22 00:45:30;;;;;;;6.10;4.50;;;0.00;59.30;-0.40;102472.00;;;;4934785;28;93036;-69
2022/03/22 00:47:57;;;;;;;8.03;3.83;;;0.40;59.60;-0.50;102474.00;;;;4935138;28;92190;-69
2022/03/22 00:50:27;;;;;;;9.97;4.93;;;-0.10;59.50;-0.60;102465.00;;;;4940686;28;92738;-69
2022/03/22 00:52:54;;;;;;;7.83;3.90;;;-0.20;59.60;-0.60;102468.00;;;;4934520;28;93919;-69
2022/03/22 00:55:23;;;;;;;8.90;4.37;;;-0.20;59.70;-0.60;102463.00;;;;4932156;28;94453;-69
2022/03/22 00:57:50;;;;;;;6.97;4.83;;;-0.30;59.80;-0.70;102462.00;;;;4935195;28;92926;-69
2022/03/22 01:00:16;;;;;;;7.87;4.77;;;-0.30;60.10;-0.70;102467.00;;;;4934284;28;92795;-69
2022/03/22 01:02:45;;;;;;;5.73;3.97;;;-0.40;60.20;-0.80;102459.00;;;;4934863;28;93325;-69
2022/03/22 01:05:16;;;;;;;7.20;4.33;;;-0.40;60.40;-0.80;102464.00;;;;4935227;28;94844;-69
2022/03/22 01:07:43;;;;;;;5.43;3.57;;;-0.40;60.50;-0.90;102464.00;;;;4954292;28;92758;-69
2022/03/22 01:10:11;;;;;;;8.97;4.37;;;-0.40;60.60;-0.90;102456.00;;;;4897235;28;92891;-69
2022/03/22 01:12:40;;;;;;;5.13;4.63;;;0.00;61.20;-1.00;102450.00;;;;4933989;28;107675;-69
2022/03/22 01:15:15;;;;;;;5.70;4.17;;;-0.50;61.10;-1.00;102449.00;;;;4951749;28;96692;-69
2022/03/22 01:17:46;;;;;;;6.77;5.03;;;-0.60;61.20;-1.00;102453.00;;;;4954629;28;92828;-69
2022/03/22 01:20:13;;;;;;;4.40;3.60;;;-0.70;61.30;-1.10;102448.00;;;;4934718;28;93757;-69
2022/03/22 01:22:44;;;;;;;5.73;4.30;;;-0.60;61.70;-1.10;102454.00;;;;4920946;28;93308;-69
2022/03/22 01:25:16;;;;;;;5.93;4.30;;;-0.80;61.50;-1.10;102448.00;;;;4934293;28;93015;-69
2022/03/22 01:27:46;;;;;;;6.90;4.90;;;-0.70;61.90;-1.10;102451.00;;;;4945811;28;103506;-69
2022/03/22 01:30:15;;;;;;;6.00;5.27;;;-0.70;62.10;-1.20;102459.00;;;;4934621;28;93080;-68
2022/03/22 01:32:41;;;;;;;8.20;3.87;;;-0.80;62.40;-1.20;102456.00;;;;4933815;28;94245;-69
2022/03/22 01:35:12;;;;;;;7.57;4.70;;;-0.70;62.80;-1.30;102442.00;;;;4933556;28;116333;-69
2022/03/22 01:37:39;;;;;;;7.03;4.17;;;0.10;63.60;-1.30;102453.00;;;;4934816;28;92177;-69
2022/03/22 01:40:08;;;;;;;7.57;3.70;;;-0.90;63.30;-1.40;102443.00;;;;4934142;28;92661;-69
2022/03/22 01:42:35;;;;;;;6.97;4.80;;;-0.90;64.20;-1.40;102445.00;;;;4934175;28;93042;-69
2022/03/22 01:45:02;;;;;;;9.97;5.23;;;-1.10;64.50;-1.50;102445.00;;;;4932371;28;114357;-69
2022/03/22 01:47:28;;;;;;;4.03;3.70;;;-1.40;64.50;-1.60;102450.00;;;;4944526;28;92740;-69
2022/03/22 01:49:54;;;;;;;6.70;3.67;;;-1.10;65.00;-1.60;102443.00;;;;4948670;28;92871;-69
2022/03/22 01:52:23;;;;;;;8.07;3.73;;;-1.20;65.10;-1.60;102455.00;;;;4953316;28;116242;-69
2022/03/22 01:54:51;;;;;;;7.10;3.37;;;-1.20;65.30;-1.70;102451.00;;;;4933440;28;93560;-69
2022/03/22 01:57:18;;;;;;;7.87;4.57;;;-1.20;65.60;-1.70;102452.00;;;;4952982;28;104471;-69
2022/03/22 01:59:45;;;;;;;6.40;3.33;;;-1.30;65.90;-1.70;102458.00;;;;4937264;28;92755;-69
2022/03/22 02:07:42;;;;;;;7.13;4.00;;;-1.30;67.30;-1.80;102453.00;;;;4931128;28;92851;-69
2022/03/22 02:10:08;;;;;;;4.70;3.90;;;-1.40;66.90;-1.80;102443.00;;;;4913346;28;93664;-69
2022/03/22 02:12:34;;;;;;;5.93;4.53;;;-1.40;67.20;-1.80;102447.00;;;;4917967;28;106357;-69
2022/03/22 02:15:01;;;;;;;9.03;4.33;;;-1.40;67.50;-1.80;102440.00;;;;4936494;28;114530;-69
2022/03/22 02:17:27;;;;;;;5.33;4.60;;;-1.40;68.00;-1.90;102441.00;;;;4953718;28;92898;-69
2022/03/22 02:19:54;;;;;;;7.60;4.97;;;-1.50;69.00;-1.90;102441.00;;;;4951899;28;93863;-70
2022/03/22 02:22:36;;;;;;;7.20;5.03;;;-1.40;70.50;-2.00;102424.00;;;;4934638;28;102283;-69
2022/03/22 02:25:03;;;;;;;5.93;4.50;;;-1.40;71.80;-2.00;102435.00;;;;4934203;28;92928;-69
2022/03/22 02:27:34;;;;;;;6.13;4.20;;;-1.60;72.30;-2.10;102427.00;;;;4953551;28;92088;-69
2022/03/22 02:30:00;;;;;;;4.97;4.03;;;-1.70;72.20;-2.20;102429.00;;;;4934589;28;92879;-69
2022/03/22 02:32:25;;;;;;;7.40;5.90;;;-1.70;72.70;-2.20;102433.00;;;;4932961;28;111143;-69
2022/03/22 02:34:51;;;;;;;7.77;4.70;;;-1.80;72.80;-2.20;102426.00;;;;4932092;28;122223;-69
2022/03/22 02:37:18;;;;;;;6.57;4.60;;;-1.80;72.90;-2.20;102432.00;;;;4933011;28;93079;-69
2022/03/22 02:39:44;;;;;;;8.07;4.73;;;-1.90;73.00;-2.30;102445.00;;;;4950864;28;93023;-69
2022/03/22 02:42:10;;;;;;;8.80;4.37;;;-1.90;73.10;-2.30;102432.00;;;;4952723;28;92911;-69
2022/03/22 02:44:36;;;;;;;6.47;4.43;;;-1.80;73.20;-2.30;102433.00;;;;4937902;28;100264;-70
2022/03/22 02:47:03;;;;;;;7.87;5.73;;;-1.90;73.30;-2.30;102430.00;;;;4933157;28;92859;-69
2022/03/22 02:49:30;;;;;;;10.10;7.10;;;-1.90;73.50;-2.30;102435.00;;;;4920614;28;93110;-69
2022/03/22 02:51:56;;;;;;;6.47;4.50;;;-1.90;73.80;-2.30;102432.00;;;;4933157;28;92004;-70
2022/03/22 02:54:22;;;;;;;6.27;4.50;;;-1.30;74.40;-2.40;102435.00;;;;4933337;28;121763;-69
2022/03/22 02:56:47;;;;;;;6.90;5.33;;;-1.90;74.00;-2.40;102429.00;;;;4932071;28;110188;-69
2022/03/22 02:59:13;;;;;;;7.77;4.97;;;-1.90;74.20;-2.40;102429.00;;;;4933188;28;109238;-69
2022/03/22 03:01:39;;;;;;;8.20;4.83;;;-2.00;74.60;-2.40;102425.00;;;;4932086;28;122211;-69
2022/03/22 03:04:05;;;;;;;6.20;5.00;;;-2.00;75.00;-2.40;102415.00;;;;4942633;28;121914;-69
2022/03/22 03:06:31;;;;;;;10.50;6.07;;;-1.60;75.70;-2.50;102418.00;;;;4952589;28;92926;-69
2022/03/22 03:09:00;;;;;;;8.00;4.43;;;-2.00;75.70;-2.40;102416.00;;;;4934071;28;92790;-70
2022/03/22 03:11:26;;;;;;;7.57;5.57;;;-2.00;75.90;-2.50;102432.00;;;;4932503;28;92963;-69
2022/03/22 03:16:39;;;;;;;5.97;4.77;;;-2.10;76.30;-2.60;102425.00;;;;4932524;28;92104;-69
2022/03/22 03:19:06;;;;;;;5.60;4.23;;;-2.10;76.40;-2.60;102428.00;;;;4934847;28;92899;-69
2022/03/22 03:21:32;;;;;;;12.00;6.33;;;-1.40;77.20;-2.70;102430.00;;;;4932315;28;94065;-70
2022/03/22 03:23:58;;;;;;;13.47;5.70;;;-2.30;77.00;-2.70;102431.00;;;;4931932;28;94281;-69
2022/03/22 03:26:24;;;;;;;12.77;5.77;;;-2.20;77.70;-2.70;102433.00;;;;4951108;28;110943;-69
2022/03/22 03:28:49;;;;;;;7.93;5.27;;;-2.30;78.00;-2.70;102424.00;;;;4942562;28;109336;-69
2022/03/22 03:31:15;;;;;;;12.10;5.17;;;-2.30;78.40;-2.70;102443.00;;;;4931836;28;93304;-69
2022/03/22 03:33:41;;;;;;;9.03;5.10;;;-2.20;78.90;-2.70;102427.00;;;;4932014;28;121629;-69
2022/03/22 03:36:07;;;;;;;5.93;4.63;;;-2.30;79.20;-2.70;102429.00;;;;4931990;28;99276;-69
2022/03/22 03:38:41;;;;;;;8.33;4.90;;;-2.80;79.10;-2.70;102438.00;;;;4934498;28;92873;-69
2022/03/22 03:43:52;;;;;;;12.27;6.00;;;-2.30;80.30;-2.80;102430.00;;;;4927475;28;93126;-70
2022/03/22 03:49:03;;;;;;;9.30;5.87;;;-2.80;80.90;-2.90;102428.00;;;;4939478;28;93888;-69
2022/03/22 03:51:29;;;;;;;9.63;5.20;;;-2.40;81.70;-3.00;102437.00;;;;4955604;28;93096;-70
2022/03/22 03:53:54;;;;;;;9.57;5.90;;;-2.30;82.30;-3.00;102436.00;;;;4955645;28;92974;-69
2022/03/22 03:56:20;;;;;;;7.40;5.73;;;-2.50;83.10;-3.00;102438.00;;;;4954508;28;109415;-69
2022/03/22 03:58:45;;;;;;;8.50;6.03;;;-2.60;83.30;-3.10;102433.00;;;;4946914;28;108671;-70
2022/03/22 04:01:11;;;;;;;5.87;5.10;;;-2.60;83.70;-3.20;102434.00;;;;4933849;28;122163;-70
2022/03/22 04:03:39;;;;;;;7.13;5.20;;;-2.70;84.00;-3.20;102445.00;;;;4936100;28;93064;-70
2022/03/22 04:06:05;;;;;;;8.67;5.37;;;-2.70;84.40;-3.20;102447.00;;;;4935672;28;92002;-69
2022/03/22 04:08:31;;;;;;;8.17;5.47;;;-2.80;84.60;-3.30;102442.00;;;;4942318;28;92970;-70
2022/03/22 04:10:56;;;;;;;6.87;4.83;;;-2.80;85.00;-3.30;102444.00;;;;4954623;28;93139;-70
2022/03/22 04:13:22;;;;;;;8.37;5.73;;;-2.90;85.30;-3.30;102445.00;;;;4935444;28;122671;-69
2022/03/22 04:15:48;;;;;;;9.13;5.40;;;-2.80;85.50;-3.30;102434.00;;;;4922754;28;108794;-70
2022/03/22 04:18:14;;;;;;;10.43;5.57;;;-2.80;86.00;-3.30;102434.00;;;;4936002;28;109136;-72
2022/03/22 04:20:40;;;;;;;9.63;5.47;;;-2.80;86.20;-3.30;102439.00;;;;4913925;28;95423;-69
2022/03/22 04:23:06;;;;;;;9.13;5.33;;;-2.80;86.70;-3.30;102439.00;;;;4954538;28;122765;-69
2022/03/22 04:25:32;;;;;;;7.07;4.97;;;-2.80;87.00;-3.30;102439.00;;;;4954075;28;110417;-69
2022/03/22 04:33:26;;;;;;;10.27;6.10;;;-2.90;87.70;-3.30;102438.00;;;;4937205;28;92834;-69
2022/03/22 04:35:51;;;;;;;12.33;6.37;;;-2.90;88.00;-3.30;102446.00;;;;4953665;28;110220;-69
2022/03/22 04:38:18;;;;;;;6.80;4.53;;;-2.50;88.70;-3.30;102444.00;;;;4936150;28;107616;-69
2022/03/22 04:40:45;;;;;;;9.47;6.33;;;-3.40;88.30;-3.30;102449.00;;;;4936850;28;93156;-69
2022/03/22 04:43:10;;;;;;;11.63;6.33;;;-2.80;89.30;-3.40;102450.00;;;;4935825;28;92946;-69
2022/03/22 04:45:36;;;;;;;8.97;5.50;;;-2.80;89.40;-3.40;102447.00;;;;4934312;28;110081;-69
2022/03/22 04:48:02;;;;;;;8.87;5.47;;;-2.90;89.90;-3.40;102454.00;;;;4937035;28;94153;-69
2022/03/22 04:50:28;;;;;;;14.43;6.07;;;-2.90;90.10;-3.40;102453.00;;;;4917188;28;106571;-69
2022/03/22 04:58:22;;;;;;;30.70;13.53;;;-3.10;90.60;-3.50;102445.00;;;;4950973;28;92919;-70
2022/03/22 05:00:48;;;;;;;21.00;12.40;;;-3.10;91.10;-3.50;102455.00;;;;4953529;28;93268;-69
2022/03/22 05:03:14;;;;;;;33.47;19.10;;;-3.10;91.50;-3.60;102443.00;;;;4953296;28;93769;-70
2022/03/22 05:08:24;;;;;;;36.30;15.97;;;-3.20;91.90;-3.70;102464.00;;;;4931821;28;93161;-69
2022/03/22 05:10:49;;;;;;;24.93;12.47;;;-3.10;92.20;-3.60;102457.00;;;;4932358;28;121213;-69
2022/03/22 05:13:16;;;;;;;29.00;13.80;;;-3.20;92.50;-3.60;102456.00;;;;4932635;28;122941;-70
2022/03/22 05:15:41;;;;;;;25.87;11.80;;;-3.20;92.20;-3.60;102466.00;;;;4933328;28;92715;-70
2022/03/22 05:18:07;;;;;;;27.70;14.00;;;-3.20;92.30;-3.60;102458.00;;;;4936146;28;108098;-70
2022/03/22 05:20:33;;;;;;;27.53;14.17;;;-3.10;92.50;-3.60;102453.00;;;;4950123;28;121252;-70
2022/03/22 05:22:59;;;;;;;34.90;17.17;;;-3.20;92.50;-3.60;102463.00;;;;4952222;28;121395;-70
2022/03/22 05:25:31;;;;;;;26.40;12.57;;;-3.20;92.80;-3.50;102464.00;;;;4933474;28;92875;-71
2022/03/22 05:27:59;;;;;;;26.97;15.00;;;-3.10;93.00;-3.50;102464.00;;;;4918027;28;93819;-71
2022/03/22 05:30:25;;;;;;;13.90;8.03;;;-3.00;93.10;-3.40;102461.00;;;;4935927;28;93031;-70
2022/03/22 05:32:50;;;;;;;21.13;11.73;;;-3.00;93.20;-3.30;102466.00;;;;4935611;28;93489;-72
2022/03/22 05:35:16;;;;;;;26.20;13.27;;;-2.60;93.60;-3.20;102460.00;;;;4938901;28;109259;-70
2022/03/22 05:37:42;;;;;;;15.80;9.57;;;-2.80;93.70;-3.10;102455.00;;;;4930691;28;109385;-70
2022/03/22 05:40:09;;;;;;;22.93;10.20;;;-2.70;93.90;-2.90;102465.00;;;;4931395;28;93529;-70
2022/03/22 05:42:40;;;;;;;17.63;8.93;;;-2.60;94.20;-2.70;102459.00;;;;4937911;28;113828;-70
2022/03/22 05:45:08;;;;;;;15.83;8.27;;;-2.40;94.30;-2.40;102471.00;;;;4933826;28;92410;-70
2022/03/22 05:47:34;;;;;;;12.10;7.67;;;-2.20;94.50;-2.20;102472.00;;;;4913879;28;93240;-70
2022/03/22 05:50:00;;;;;;;15.33;6.87;;;-1.90;94.60;-2.00;102469.00;;;;4929832;28;122910;-70
2022/03/22 05:52:26;;;;;;;9.27;6.07;;;-1.70;94.50;-1.80;102479.00;;;;4929853;28;93745;-70
2022/03/22 05:54:51;;;;;;;7.13;6.00;;;-1.50;94.20;-1.60;102475.00;;;;4929836;28;93110;-70
2022/03/22 05:57:17;;;;;;;10.10;7.33;;;-1.30;93.90;-1.30;102484.00;;;;4936814;28;109101;-70
2022/03/22 05:59:43;;;;;;;8.70;5.37;;;-1.10;93.60;-1.10;102481.00;;;;4912842;28;93129;-70
2022/03/22 06:02:09;;;;;;;11.17;6.47;;;-0.80;93.20;-0.90;102483.00;;;;4929072;28;120776;-70
2022/03/22 06:04:34;;;;;;;8.70;6.43;;;-0.60;92.80;-0.70;102494.00;;;;4935229;28;92824;-69
2022/03/22 06:07:00;;;;;;;8.67;6.07;;;-0.40;92.40;-0.50;102482.00;;;;4934343;28;108646;-70
2022/03/22 06:09:26;;;;;;;6.43;5.83;;;-0.20;92.00;-0.20;102492.00;;;;4936381;28;92629;-69
2022/03/22 06:11:52;;;;;;;5.40;4.53;;;0.00;91.60;0.00;102491.00;;;;4934378;28;93997;-69
2022/03/22 06:14:18;;;;;;;9.30;6.60;;;0.20;91.30;0.30;102493.00;;;;4932973;28;109623;-69
2022/03/22 06:16:43;;;;;;;8.40;6.17;;;0.50;91.00;0.50;102491.00;;;;4932074;28;108813;-70
2022/03/22 06:19:09;;;;;;;8.13;5.40;;;0.70;90.60;0.80;102486.00;;;;4933469;28;97362;-70
2022/03/22 06:21:35;;;;;;;8.73;5.30;;;1.00;90.20;1.00;102493.00;;;;4932118;28;121986;-70
2022/03/22 06:24:00;;;;;;;8.73;5.60;;;1.20;89.60;1.30;102493.00;;;;4934458;28;92865;-70
2022/03/22 06:26:26;;;;;;;10.93;6.83;;;1.50;88.90;1.60;102494.00;;;;4911085;28;109281;-69
2022/03/22 06:28:52;;;;;;;8.97;6.77;;;1.80;87.40;1.90;102508.00;;;;4924702;28;123631;-70
2022/03/22 06:31:18;;;;;;;11.40;7.53;;;2.00;86.00;2.20;102510.00;;;;4927473;28;93032;-69
2022/03/22 06:33:43;;;;;;;15.17;8.77;;;2.30;84.80;2.40;102512.00;;;;4933318;28;110373;-69
2022/03/22 06:36:09;;;;;;;11.87;8.33;;;2.50;82.70;2.70;102504.00;;;;4917645;28;108103;-69
2022/03/22 06:38:36;;;;;;;13.97;8.13;;;2.70;81.40;2.90;102513.00;;;;4931481;28;93394;-69
2022/03/22 06:41:03;;;;;;;10.77;7.23;;;3.00;80.30;3.20;102511.00;;;;4931969;28;101482;-69
2022/03/22 06:43:29;;;;;;;13.97;7.40;;;3.30;79.40;3.50;102505.00;;;;4929565;28;92951;-69
2022/03/22 06:45:55;;;;;;;14.37;7.03;;;3.50;78.10;3.80;102508.00;;;;4913855;28;93084;-69
2022/03/22 06:48:22;;;;;;;11.50;6.50;;;3.80;77.20;4.10;102514.00;;;;4913901;28;119014;-69
2022/03/22 06:50:49;;;;;;;12.10;7.40;;;4.70;76.90;4.40;102512.00;;;;4913107;28;93835;-69
2022/03/22 06:53:15;;;;;;;14.03;7.47;;;4.50;75.40;4.70;102514.00;;;;4916914;28;92936;-69
2022/03/22 06:55:41;;;;;;;8.60;6.73;;;4.70;74.00;5.10;102511.00;;;;4933334;28;93107;-69
2022/03/22 06:58:07;;;;;;;12.23;7.13;;;5.10;72.90;5.40;102512.00;;;;4931985;28;92400;-69
2022/03/22 07:00:34;;;;;;;11.47;7.27;;;5.50;71.90;5.70;102520.00;;;;4932497;28;92696;-69
2022/03/22 07:03:02;;;;;;;13.63;7.40;;;5.70;69.80;6.10;102521.00;;;;4932980;28;92860;-70
2022/03/22 07:05:28;;;;;;;12.17;8.03;;;6.40;68.60;6.30;102526.00;;;;4932988;28;93710;-69
2022/03/22 07:07:56;;;;;;;9.10;5.57;;;6.30;65.00;6.50;102511.00;;;;4929704;28;92878;-70
2022/03/22 07:10:22;;;;;;;8.77;6.43;;;7.00;63.30;6.60;102521.00;;;;4932542;28;92917;-69
2022/03/22 07:13:06;;;;;;;9.37;5.97;;;6.70;62.70;7.00;102521.00;;;;4930428;28;110003;-70
2022/03/22 07:15:38;;;;;;;8.13;6.37;;;6.90;62.40;7.30;102528.00;;;;4931577;28;93153;-69
2022/03/22 07:18:06;;;;;;;11.03;6.70;;;7.30;61.30;7.70;102532.00;;;;4932059;28;92826;-69
2022/03/22 07:20:33;;;;;;;10.03;5.97;;;7.60;60.40;8.00;102519.00;;;;4932325;28;93808;-70
2022/03/22 07:23:00;;;;;;;10.17;6.57;;;8.00;58.70;8.20;102521.00;;;;4931661;28;92355;-71
2022/03/22 07:25:26;;;;;;;8.57;5.43;;;8.10;57.00;8.40;102521.00;;;;4913830;28;99646;-71
2022/03/22 07:27:52;;;;;;;12.73;7.00;;;8.40;57.00;8.70;102525.00;;;;4914714;28;122584;-70
2022/03/22 07:30:18;;;;;;;8.80;5.07;;;8.70;56.20;8.90;102528.00;;;;4924113;28;93996;-69
2022/03/22 07:32:45;;;;;;;11.27;6.07;;;8.90;54.50;9.20;102524.00;;;;4945903;28;109278;-70
2022/03/22 07:35:13;;;;;;;6.87;4.83;;;9.10;53.50;9.40;102531.00;;;;4935949;28;92920;-68
2022/03/22 07:37:39;;;;;;;9.33;6.43;;;9.30;53.10;9.60;102536.00;;;;4936009;28;94298;-70
2022/03/22 07:40:09;;;;;;;9.53;5.40;;;9.50;52.80;9.90;102530.00;;;;4917303;28;92998;-69
2022/03/22 07:42:35;;;;;;;9.27;5.87;;;9.80;52.90;10.40;102531.00;;;;4918122;28;92966;-69
2022/03/22 07:45:06;;;;;;;9.03;5.17;;;10.20;52.50;10.80;102526.00;;;;4935635;28;93070;-69
2022/03/22 07:47:33;;;;;;;8.57;5.33;;;10.60;51.00;11.20;102536.00;;;;4946884;28;107485;-70
2022/03/22 07:53:05;;;;;;;8.20;4.60;;;11.40;49.20;12.00;102531.00;;;;4933400;28;93119;-69
2022/03/22 07:55:38;;;;;;;9.43;5.63;;;11.80;46.60;12.10;102535.00;;;;4919133;28;94130;-70
2022/03/22 07:58:05;;;;;;;8.23;5.03;;;12.00;45.30;12.20;102529.00;;;;4935818;28;93796;-69
2022/03/22 08:00:35;;;;;;;8.27;4.83;;;12.10;45.40;12.40;102536.00;;;;4934867;28;93534;-69
2022/03/22 08:03:03;;;;;;;7.97;5.00;;;12.30;45.10;12.60;102537.00;;;;4935920;28;93231;-69
2022/03/22 08:05:31;;;;;;;7.87;4.03;;;12.50;44.40;12.70;102535.00;;;;4935140;28;93980;-69
2022/03/22 08:07:57;;;;;;;9.97;5.50;;;12.60;43.90;12.90;102527.00;;;;4935581;28;112983;-70
2022/03/22 08:10:23;;;;;;;6.97;5.63;;;12.80;42.80;13.00;102527.00;;;;4934946;28;93080;-69
2022/03/22 08:12:49;;;;;;;8.80;5.40;;;12.90;41.70;13.10;102543.00;;;;4942194;28;104260;-68
2022/03/22 08:15:16;;;;;;;8.27;5.03;;;13.00;41.30;13.20;102530.00;;;;4954676;28;102170;-70
2022/03/22 08:17:42;;;;;;;7.07;4.90;;;13.10;41.00;13.20;102542.00;;;;4955231;28;92829;-69
2022/03/22 08:20:11;;;;;;;10.37;6.27;;;13.20;41.10;13.40;102535.00;;;;4915495;28;93889;-69
2022/03/22 08:22:49;;;;;;;7.57;5.77;;;13.30;40.30;13.40;102529.00;;;;4918939;28;92979;-68
2022/03/22 08:25:16;;;;;;;6.17;4.23;;;13.30;39.80;13.50;102526.00;;;;4935895;28;92822;-69
2022/03/22 08:27:42;;;;;;;10.20;5.10;;;13.40;39.30;13.70;102520.00;;;;4934718;28;94198;-68
2022/03/22 08:30:10;;;;;;;6.67;4.67;;;13.50;38.80;13.70;102534.00;;;;4934914;28;93271;-69
2022/03/22 08:32:35;;;;;;;8.00;4.63;;;13.60;38.60;13.70;102528.00;;;;4936487;28;92974;-68
2022/03/22 08:35:02;;;;;;;8.13;4.90;;;13.60;38.70;13.90;102532.00;;;;4912165;28;108641;-69
2022/03/22 08:37:27;;;;;;;10.17;5.83;;;13.70;38.90;14.10;102523.00;;;;4915489;28;117647;-69
2022/03/22 08:39:53;;;;;;;10.03;5.27;;;13.90;38.10;14.30;102528.00;;;;4949966;28;109818;-69
2022/03/22 08:42:19;;;;;;;8.97;5.47;;;14.10;37.70;14.50;102526.00;;;;4952813;28;93232;-68
2022/03/22 08:44:44;;;;;;;8.10;4.80;;;14.30;38.20;14.70;102522.00;;;;4939632;28;93945;-70
2022/03/22 08:47:10;;;;;;;8.77;5.27;;;14.50;37.70;15.00;102522.00;;;;4933756;28;123043;-68
2022/03/22 08:49:36;;;;;;;6.80;3.97;;;14.70;37.00;15.20;102519.00;;;;4934196;28;122081;-69
2022/03/22 08:52:02;;;;;;;4.87;3.87;;;14.90;35.80;15.30;102525.00;;;;4933683;28;109884;-70
2022/03/22 08:54:27;;;;;;;7.70;5.10;;;15.10;35.70;15.50;102517.00;;;;4938918;28;103475;-69
2022/03/22 08:56:53;;;;;;;6.10;3.95;;;15.30;35.70;15.80;102528.00;;;;4932878;28;123434;-69
2022/03/22 08:59:19;;;;;;;5.13;4.38;;;15.50;35.70;16.20;102520.00;;;;4934034;28;120507;-69
2022/03/22 09:01:45;;;;;;;5.22;4.45;;;15.90;35.40;16.40;102521.00;;;;4934738;28;92714;-70
2022/03/22 09:06:55;;;;;;;7.35;4.65;;;16.30;34.50;16.80;102513.00;;;;4934344;28;92788;-69
2022/03/22 09:09:21;;;;;;;6.35;4.43;;;16.60;34.30;17.20;102506.00;;;;4933683;28;121625;-69
2022/03/22 09:11:47;;;;;;;4.30;3.10;;;16.80;32.30;17.50;102514.00;;;;4934181;28;92788;-68
2022/03/22 09:14:12;;;;;;;4.90;3.88;;;17.20;29.00;17.30;102508.00;;;;4935164;28;107982;-68
2022/03/22 09:16:39;;;;;;;5.68;3.80;;;17.10;28.90;17.20;102510.00;;;;4914874;28;122433;-69
2022/03/22 09:19:05;;;;;;;5.03;3.47;;;17.10;28.70;17.20;102504.00;;;;4951545;28;93649;-69
2022/03/22 09:21:30;;;;;;;6.90;3.90;;;17.10;28.80;17.30;102500.00;;;;4952333;28;92760;-68
2022/03/22 09:23:57;;;;;;;4.03;2.80;;;17.10;27.70;17.20;102497.00;;;;4952296;28;101072;-68
2022/03/22 09:26:23;;;;;;;5.25;3.47;;;17.10;27.60;17.20;102502.00;;;;4953820;28;92661;-68
2022/03/22 09:28:52;;;;;;;4.90;2.92;;;17.00;27.20;17.20;102511.00;;;;4953098;28;118545;-68
2022/03/22 09:31:20;;;;;;;7.75;3.00;;;17.10;27.30;17.20;102506.00;;;;4953807;28;92862;-68
2022/03/22 09:33:48;;;;;;;4.65;3.70;;;16.90;27.20;17.20;102497.00;;;;4945187;28;93783;-69
2022/03/22 09:36:14;;;;;;;3.78;3.15;;;17.10;27.20;17.40;102502.00;;;;4934816;28;93788;-68
2022/03/22 09:38:40;;;;;;;3.08;2.38;;;17.10;26.90;17.50;102503.00;;;;4933529;28;114042;-68
2022/03/22 09:41:07;;;;;;;3.65;3.17;;;17.20;26.00;17.50;102499.00;;;;4932934;28;109672;-67
2022/03/22 09:43:35;;;;;;;4.53;2.88;;;17.30;25.70;17.40;102494.00;;;;4934734;28;92733;-68
2022/03/22 09:46:04;;;;;;;4.90;3.25;;;17.20;25.70;17.50;102496.00;;;;4933800;28;93106;-68
2022/03/22 09:48:31;;;;;;;7.75;2.85;;;17.20;26.20;17.70;102499.00;;;;4934046;28;93794;-68
2022/03/22 09:53:41;;;;;;;4.55;2.58;;;17.60;26.20;18.10;102501.00;;;;4931944;28;92794;-69
2022/03/22 09:56:08;;;;;;;4.63;2.85;;;17.80;25.00;18.10;102499.00;;;;4950304;28;108052;-68
2022/03/22 09:58:34;;;;;;;4.93;2.67;;;17.80;24.80;18.00;102489.00;;;;4951998;28;122539;-70
2022/03/22 10:00:59;;;;;;;4.43;3.13;;;17.80;24.90;18.10;102488.00;;;;4918875;28;93002;-69
2022/03/22 10:03:25;;;;;;;6.85;3.38;;;17.80;25.10;18.10;102474.00;;;;4934347;28;107936;-69
2022/03/22 10:06:00;;;;;;;4.45;3.35;;;17.90;25.00;18.30;102480.00;;;;4953610;28;93016;-68
2022/03/22 10:08:25;;;;;;;4.68;2.53;;;17.90;25.90;18.50;102474.00;;;;4952246;28;93668;-68
2022/03/22 10:11:01;;;;;;;2.58;2.08;;;18.10;25.20;18.70;102485.00;;;;4951906;28;92885;-69
2022/03/22 10:13:28;;;;;;;5.22;3.28;;;18.30;25.20;18.80;102481.00;;;;4921321;28;92867;-69
2022/03/22 10:16:02;;;;;;;3.05;2.67;;;18.50;23.80;18.70;102479.00;;;;4933054;28;92955;-68
2022/03/22 10:18:28;;;;;;;3.70;2.75;;;18.50;23.40;18.60;102485.00;;;;4913529;28;92908;-68
2022/03/22 10:21:02;;;;;;;3.88;2.33;;;18.50;23.50;18.70;102478.00;;;;4920998;28;92949;-68
2022/03/22 10:23:30;;;;;;;3.83;2.42;;;18.40;23.60;18.70;102481.00;;;;4933512;28;93741;-67
2022/03/22 10:26:05;;;;;;;6.45;3.38;;;18.50;23.90;18.80;102465.00;;;;4932391;28;122952;-68
2022/03/22 10:28:33;;;;;;;4.03;2.63;;;18.50;23.70;19.10;102472.00;;;;4934619;28;92962;-69
2022/03/22 10:30:59;;;;;;;3.95;2.80;;;18.70;23.80;19.40;102466.00;;;;4932829;28;92830;-68
2022/03/22 10:33:26;;;;;;;4.20;2.78;;;18.90;23.90;19.80;102470.00;;;;4914726;28;92962;-72
2022/03/22 10:35:52;;;;;;;4.03;3.28;;;19.30;23.80;19.90;102467.00;;;;4912690;28;94037;-73
2022/03/22 10:38:19;;;;;;;4.60;3.08;;;19.50;23.90;20.10;102470.00;;;;4899484;28;120611;-72
2022/03/22 10:40:48;;;;;;;4.80;3.13;;;19.70;23.30;20.30;102474.00;;;;4915279;28;92222;-73
2022/03/22 10:43:26;;;;;;;4.63;2.85;;;19.80;23.20;20.40;102463.00;;;;4933715;28;92756;-71
2022/03/22 10:46:00;;;;;;;4.22;2.80;;;19.90;23.20;20.50;102467.00;;;;4914587;28;92996;-73
2022/03/22 10:48:38;;;;;;;5.15;2.33;;;20.10;23.00;20.70;102474.00;;;;4897954;28;95520;-73
2022/03/22 10:51:06;;;;;;;4.40;3.00;;;20.20;23.30;20.60;102469.00;;;;4943313;28;93129;-73
2022/03/22 10:53:34;;;;;;;3.92;2.95;;;20.30;22.50;20.50;102475.00;;;;4946477;28;92715;-73
2022/03/22 10:56:03;;;;;;;6.10;2.67;;;20.10;22.10;20.50;102475.00;;;;4915962;28;93225;-73
2022/03/22 10:58:30;;;;;;;5.85;3.58;;;20.20;22.50;20.80;102466.00;;;;4949129;28;93132;-73
2022/03/22 11:00:59;;;;;;;3.55;2.30;;;20.40;23.00;21.10;102474.00;;;;4920605;28;92813;-75
2022/03/22 11:03:29;;;;;;;4.38;3.20;;;20.60;23.10;21.20;102468.00;;;;4915672;28;93430;-72
2022/03/22 11:05:57;;;;;;;2.60;2.40;;;20.70;22.30;21.30;102459.00;;;;4914472;28;104443;-73
2022/03/22 11:08:27;;;;;;;3.60;2.00;;;20.90;22.40;21.40;102464.00;;;;4931635;28;121242;-74
2022/03/22 11:10:54;;;;;;;3.92;2.65;;;20.90;22.20;21.50;102460.00;;;;4932390;28;92908;-73
2022/03/22 11:13:24;;;;;;;2.97;2.63;;;21.10;22.00;21.60;102461.00;;;;4914686;28;93979;-74
2022/03/22 11:15:51;;;;;;;5.38;2.65;;;21.20;21.30;21.40;102452.00;;;;4931599;28;113636;-75
2022/03/22 11:18:20;;;;;;;5.57;3.03;;;21.10;21.00;21.50;102445.00;;;;4932450;28;93878;-74
2022/03/22 11:20:55;;;;;;;3.58;2.17;;;21.10;21.70;21.60;102448.00;;;;4932430;28;92815;-74